Terminal Aerodrome Forecast
Issued by NWS Pittsburgh, PA

Current Version | Previous Version | Graphics & Text | Print | Product List | Glossary On
Versions: 1 2 3 4 5 6 7 8 9 10 11 12 13 14 15 16 17 18 19 20 21 22 23 24 25 26 27 28 29 30 31
217
FTUS41 KPBZ 050523
TAFPIT
TAF
KPIT 050523Z 0506/0612 17005KT 5SM -RA BR OVC015
     FM050700 24006KT 5SM BR OVC008
     FM051200 28007KT P6SM BKN010
     FM051800 32007KT P6SM BKN040
     FM060200 07003KT P6SM BKN200=

USA.gov is the U.S. government's official web portal to all federal, state and local government web resources and services.